sensor_id;sensor_type;location;lat;lon;timestamp;pressure;altitude;pressure_sealevel;temperature;humidity
78431;BME280;67727;50.236;22.452;2023-06-22T00:01:19;99793.73;;;20.93;73.17
78431;BME280;67727;50.236;22.452;2023-06-22T00:03:46;99790.23;;;20.93;73.30
78431;BME280;67727;50.236;22.452;2023-06-22T00:06:13;99783.40;;;20.93;73.19
78431;BME280;67727;50.236;22.452;2023-06-22T00:08:40;99784.58;;;20.96;73.02
78431;BME280;67727;50.236;22.452;2023-06-22T00:11:07;99779.94;;;20.98;72.81
78431;BME280;67727;50.236;22.452;2023-06-22T00:13:34;99779.95;;;21.01;72.76
78431;BME280;67727;50.236;22.452;2023-06-22T00:16:01;99775.49;;;21.02;72.88
78431;BME280;67727;50.236;22.452;2023-06-22T00:18:28;99771.83;;;21.03;72.92
78431;BME280;67727;50.236;22.452;2023-06-22T00:20:57;99775.76;;;21.03;72.87
78431;BME280;67727;50.236;22.452;2023-06-22T00:23:27;99783.91;;;21.04;73.00
78431;BME280;67727;50.236;22.452;2023-06-22T00:25:53;99781.77;;;21.05;72.84
78431;BME280;67727;50.236;22.452;2023-06-22T00:28:20;99782.36;;;21.04;72.81
78431;BME280;67727;50.236;22.452;2023-06-22T00:30:48;99781.75;;;21.04;72.90
78431;BME280;67727;50.236;22.452;2023-06-22T00:33:19;99780.25;;;21.04;73.06
78431;BME280;67727;50.236;22.452;2023-06-22T00:35:45;99774.02;;;21.06;73.09
78431;BME280;67727;50.236;22.452;2023-06-22T00:38:12;99771.42;;;21.07;72.95
78431;BME280;67727;50.236;22.452;2023-06-22T00:40:39;99766.38;;;21.09;72.90
78431;BME280;67727;50.236;22.452;2023-06-22T00:43:09;99761.70;;;21.10;72.88
78431;BME280;67727;50.236;22.452;2023-06-22T00:45:36;99757.61;;;21.11;72.95
78431;BME280;67727;50.236;22.452;2023-06-22T00:48:03;99751.79;;;21.10;73.03
78431;BME280;67727;50.236;22.452;2023-06-22T00:50:32;99748.35;;;21.11;72.99
78431;BME280;67727;50.236;22.452;2023-06-22T00:53:06;99741.57;;;21.12;72.67
78431;BME280;67727;50.236;22.452;2023-06-22T00:55:44;99741.88;;;21.13;73.01
78431;BME280;67727;50.236;22.452;2023-06-22T00:58:13;99740.36;;;21.13;73.19
78431;BME280;67727;50.236;22.452;2023-06-22T01:00:40;99737.08;;;21.11;73.22
78431;BME280;67727;50.236;22.452;2023-06-22T01:03:08;99738.73;;;21.10;73.12
78431;BME280;67727;50.236;22.452;2023-06-22T01:05:36;99739.48;;;21.09;73.11
78431;BME280;67727;50.236;22.452;2023-06-22T01:11:00;99733.04;;;21.07;73.47
78431;BME280;67727;50.236;22.452;2023-06-22T01:16:23;99730.02;;;21.05;73.81
78431;BME280;67727;50.236;22.452;2023-06-22T01:18:53;99722.44;;;21.03;74.00
78431;BME280;67727;50.236;22.452;2023-06-22T01:21:23;99717.55;;;20.99;74.16
78431;BME280;67727;50.236;22.452;2023-06-22T01:24:15;99719.12;;;20.98;73.96
78431;BME280;67727;50.236;22.452;2023-06-22T01:29:44;99728.34;;;20.94;73.99
78431;BME280;67727;50.236;22.452;2023-06-22T01:32:12;99735.61;;;20.93;73.77
78431;BME280;67727;50.236;22.452;2023-06-22T01:34:40;99736.61;;;20.92;73.70
78431;BME280;67727;50.236;22.452;2023-06-22T01:37:09;99742.86;;;20.93;73.69
78431;BME280;67727;50.236;22.452;2023-06-22T01:39:36;99749.64;;;20.95;73.92
78431;BME280;67727;50.236;22.452;2023-06-22T01:42:04;99750.03;;;20.95;73.91
78431;BME280;67727;50.236;22.452;2023-06-22T01:44:32;99755.41;;;20.95;73.66
78431;BME280;67727;50.236;22.452;2023-06-22T01:46:59;99760.42;;;20.94;73.56
78431;BME280;67727;50.236;22.452;2023-06-22T01:49:26;99769.14;;;20.94;73.59
78431;BME280;67727;50.236;22.452;2023-06-22T01:51:54;99767.79;;;20.93;73.60
78431;BME280;67727;50.236;22.452;2023-06-22T01:54:21;99761.83;;;20.95;73.90
78431;BME280;67727;50.236;22.452;2023-06-22T01:56:49;99757.45;;;20.94;73.72
78431;BME280;67727;50.236;22.452;2023-06-22T01:59:42;99753.48;;;20.93;73.97
78431;BME280;67727;50.236;22.452;2023-06-22T02:02:14;99750.64;;;20.90;73.88
78431;BME280;67727;50.236;22.452;2023-06-22T02:04:44;99757.05;;;20.87;73.97
78431;BME280;67727;50.236;22.452;2023-06-22T02:07:15;99766.41;;;20.83;73.89
78431;BME280;67727;50.236;22.452;2023-06-22T02:09:45;99764.61;;;20.81;73.93
78431;BME280;67727;50.236;22.452;2023-06-22T02:12:17;99773.13;;;20.79;73.92
78431;BME280;67727;50.236;22.452;2023-06-22T02:14:45;99782.30;;;20.77;74.04
78431;BME280;67727;50.236;22.452;2023-06-22T02:17:17;99783.71;;;20.74;73.96
78431;BME280;67727;50.236;22.452;2023-06-22T02:19:44;99773.71;;;20.70;74.06
78431;BME280;67727;50.236;22.452;2023-06-22T02:22:11;99765.74;;;20.67;74.01
78431;BME280;67727;50.236;22.452;2023-06-22T02:24:41;99762.48;;;20.63;74.24
78431;BME280;67727;50.236;22.452;2023-06-22T02:27:08;99765.66;;;20.57;74.64
78431;BME280;67727;50.236;22.452;2023-06-22T02:29:36;99773.75;;;20.53;74.71
78431;BME280;67727;50.236;22.452;2023-06-22T02:32:03;99780.48;;;20.49;74.70
78431;BME280;67727;50.236;22.452;2023-06-22T02:34:31;99776.86;;;20.47;74.77
78431;BME280;67727;50.236;22.452;2023-06-22T02:37:00;99771.61;;;20.46;74.65
78431;BME280;67727;50.236;22.452;2023-06-22T02:39:27;99770.21;;;20.44;75.16
78431;BME280;67727;50.236;22.452;2023-06-22T02:41:54;99769.80;;;20.42;75.27
78431;BME280;67727;50.236;22.452;2023-06-22T02:44:21;99775.56;;;20.40;75.29
78431;BME280;67727;50.236;22.452;2023-06-22T02:46:49;99779.00;;;20.41;75.33
78431;BME280;67727;50.236;22.452;2023-06-22T02:49:16;99779.17;;;20.42;75.31
78431;BME280;67727;50.236;22.452;2023-06-22T02:51:46;99783.09;;;20.44;75.34
78431;BME280;67727;50.236;22.452;2023-06-22T02:54:13;99787.14;;;20.46;75.35
78431;BME280;67727;50.236;22.452;2023-06-22T02:56:40;99791.23;;;20.48;75.25
78431;BME280;67727;50.236;22.452;2023-06-22T02:59:07;99792.53;;;20.49;75.03
78431;BME280;67727;50.236;22.452;2023-06-22T03:01:34;99791.89;;;20.49;75.30
78431;BME280;67727;50.236;22.452;2023-06-22T03:04:08;99797.27;;;20.46;75.29
78431;BME280;67727;50.236;22.452;2023-06-22T03:06:35;99798.40;;;20.42;75.58
78431;BME280;67727;50.236;22.452;2023-06-22T03:09:03;99802.63;;;20.39;75.62
78431;BME280;67727;50.236;22.452;2023-06-22T03:11:32;99804.95;;;20.39;75.74
78431;BME280;67727;50.236;22.452;2023-06-22T03:14:00;99799.69;;;20.42;75.57
78431;BME280;67727;50.236;22.452;2023-06-22T03:16:27;99797.06;;;20.45;75.80
78431;BME280;67727;50.236;22.452;2023-06-22T03:18:54;99793.23;;;20.47;75.89
78431;BME280;67727;50.236;22.452;2023-06-22T03:21:27;99790.48;;;20.48;75.92
78431;BME280;67727;50.236;22.452;2023-06-22T03:23:54;99794.42;;;20.49;75.72
78431;BME280;67727;50.236;22.452;2023-06-22T03:26:21;99794.84;;;20.51;75.69
78431;BME280;67727;50.236;22.452;2023-06-22T03:28:49;99797.14;;;20.55;75.71
78431;BME280;67727;50.236;22.452;2023-06-22T03:31:16;99793.01;;;20.59;75.90
78431;BME280;67727;50.236;22.452;2023-06-22T03:33:48;99789.33;;;20.64;76.06
78431;BME280;67727;50.236;22.452;2023-06-22T03:36:18;99784.54;;;20.70;75.90
78431;BME280;67727;50.236;22.452;2023-06-22T03:38:50;99786.44;;;20.76;75.79
78431;BME280;67727;50.236;22.452;2023-06-22T03:41:17;99795.58;;;20.81;75.50
78431;BME280;67727;50.236;22.452;2023-06-22T03:43:44;99795.63;;;20.84;75.56
78431;BME280;67727;50.236;22.452;2023-06-22T03:46:10;99796.20;;;20.86;75.49
78431;BME280;67727;50.236;22.452;2023-06-22T03:48:37;99798.80;;;20.89;75.42
78431;BME280;67727;50.236;22.452;2023-06-22T03:51:04;99806.48;;;20.91;75.27
78431;BME280;67727;50.236;22.452;2023-06-22T03:53:31;99803.63;;;20.94;75.41
78431;BME280;67727;50.236;22.452;2023-06-22T03:55:58;99806.77;;;20.98;75.33
78431;BME280;67727;50.236;22.452;2023-06-22T03:58:25;99808.52;;;21.02;74.87
78431;BME280;67727;50.236;22.452;2023-06-22T04:00:54;99804.50;;;21.06;74.82
78431;BME280;67727;50.236;22.452;2023-06-22T04:03:21;99803.96;;;21.06;74.56
78431;BME280;67727;50.236;22.452;2023-06-22T04:05:48;99803.30;;;21.06;74.58
78431;BME280;67727;50.236;22.452;2023-06-22T04:08:17;99805.16;;;21.07;74.74
78431;BME280;67727;50.236;22.452;2023-06-22T04:10:46;99809.19;;;21.04;74.79
78431;BME280;67727;50.236;22.452;2023-06-22T04:13:13;99809.26;;;20.96;74.81
78431;BME280;67727;50.236;22.452;2023-06-22T04:15:40;99806.42;;;20.90;74.90
78431;BME280;67727;50.236;22.452;2023-06-22T04:18:06;99811.52;;;20.86;75.07
78431;BME280;67727;50.236;22.452;2023-06-22T04:20:33;99815.11;;;20.82;75.15
78431;BME280;67727;50.236;22.452;2023-06-22T04:23:00;99821.04;;;20.80;75.20
78431;BME280;67727;50.236;22.452;2023-06-22T04:25:27;99826.84;;;20.79;75.21
78431;BME280;67727;50.236;22.452;2023-06-22T04:27:54;99829.15;;;20.81;75.20
78431;BME280;67727;50.236;22.452;2023-06-22T04:30:21;99829.73;;;20.84;75.30
78431;BME280;67727;50.236;22.452;2023-06-22T04:32:49;99832.41;;;20.87;75.33
78431;BME280;67727;50.236;22.452;2023-06-22T04:35:24;99836.98;;;20.91;75.29
78431;BME280;67727;50.236;22.452;2023-06-22T04:37:52;99841.33;;;20.95;75.31
78431;BME280;67727;50.236;22.452;2023-06-22T04:40:22;99848.89;;;21.01;75.19
78431;BME280;67727;50.236;22.452;2023-06-22T04:42:49;99854.39;;;21.08;75.16
78431;BME280;67727;50.236;22.452;2023-06-22T04:45:20;99852.60;;;21.15;75.26
78431;BME280;67727;50.236;22.452;2023-06-22T04:47:47;99852.83;;;21.22;75.28
78431;BME280;67727;50.236;22.452;2023-06-22T04:50:14;99850.44;;;21.27;74.74
78431;BME280;67727;50.236;22.452;2023-06-22T04:52:41;99852.39;;;21.33;74.59
78431;BME280;67727;50.236;22.452;2023-06-22T04:55:08;99848.81;;;21.41;74.71
78431;BME280;67727;50.236;22.452;2023-06-22T04:57:35;99851.08;;;21.51;74.62
78431;BME280;67727;50.236;22.452;2023-06-22T05:00:06;99864.71;;;21.60;74.09
78431;BME280;67727;50.236;22.452;2023-06-22T05:02:41;99872.26;;;21.65;73.85
78431;BME280;67727;50.236;22.452;2023-06-22T05:05:08;99879.27;;;21.67;73.61
78431;BME280;67727;50.236;22.452;2023-06-22T05:07:43;99872.77;;;21.71;73.54
78431;BME280;67727;50.236;22.452;2023-06-22T05:10:11;99872.93;;;21.73;73.38
78431;BME280;67727;50.236;22.452;2023-06-22T05:12:39;99875.14;;;21.76;73.38
78431;BME280;67727;50.236;22.452;2023-06-22T05:15:08;99880.75;;;21.83;73.65
78431;BME280;67727;50.236;22.452;2023-06-22T05:17:36;99883.14;;;21.90;73.94
78431;BME280;67727;50.236;22.452;2023-06-22T05:20:03;99883.63;;;22.01;73.93
78431;BME280;67727;50.236;22.452;2023-06-22T05:22:35;99883.30;;;22.14;73.75
78431;BME280;67727;50.236;22.452;2023-06-22T05:25:03;99884.83;;;22.26;73.53
78431;BME280;67727;50.236;22.452;2023-06-22T05:27:29;99883.52;;;22.36;73.05
78431;BME280;67727;50.236;22.452;2023-06-22T05:29:56;99880.49;;;22.44;72.98
78431;BME280;67727;50.236;22.452;2023-06-22T05:32:23;99874.68;;;22.55;72.48
78431;BME280;67727;50.236;22.452;2023-06-22T05:34:50;99875.07;;;22.65;72.17
78431;BME280;67727;50.236;22.452;2023-06-22T05:37:17;99887.16;;;22.75;72.05
78431;BME280;67727;50.236;22.452;2023-06-22T05:39:46;99891.54;;;22.87;71.70
78431;BME280;67727;50.236;22.452;2023-06-22T05:42:12;99886.15;;;22.98;71.25
78431;BME280;67727;50.236;22.452;2023-06-22T05:44:39;99889.70;;;23.06;71.29
78431;BME280;67727;50.236;22.452;2023-06-22T05:47:07;99887.46;;;23.13;70.61
78431;BME280;67727;50.236;22.452;2023-06-22T05:49:34;99878.12;;;23.15;70.00
78431;BME280;67727;50.236;22.452;2023-06-22T05:52:01;99873.04;;;23.16;70.00
78431;BME280;67727;50.236;22.452;2023-06-22T05:54:28;99871.28;;;23.18;70.01
78431;BME280;67727;50.236;22.452;2023-06-22T05:56:55;99870.55;;;23.19;69.34
78431;BME280;67727;50.236;22.452;2023-06-22T05:59:22;99871.58;;;23.20;68.98
78431;BME280;67727;50.236;22.452;2023-06-22T06:01:49;99878.34;;;23.21;68.76
78431;BME280;67727;50.236;22.452;2023-06-22T06:04:19;99884.20;;;23.23;68.82
78431;BME280;67727;50.236;22.452;2023-06-22T06:06:46;99880.71;;;23.24;68.93
78431;BME280;67727;50.236;22.452;2023-06-22T06:09:14;99879.60;;;23.23;68.01
78431;BME280;67727;50.236;22.452;2023-06-22T06:11:41;99888.84;;;23.22;68.21
78431;BME280;67727;50.236;22.452;2023-06-22T06:14:08;99897.72;;;23.23;68.45
78431;BME280;67727;50.236;22.452;2023-06-22T06:16:35;99896.28;;;23.24;67.60
78431;BME280;67727;50.236;22.452;2023-06-22T06:19:02;99896.74;;;23.22;67.48
78431;BME280;67727;50.236;22.452;2023-06-22T06:21:29;99897.82;;;23.22;67.51
78431;BME280;67727;50.236;22.452;2023-06-22T06:23:56;99906.52;;;23.24;67.62
78431;BME280;67727;50.236;22.452;2023-06-22T06:26:22;99905.33;;;23.30;67.87
78431;BME280;67727;50.236;22.452;2023-06-22T06:28:55;99904.33;;;23.39;68.30
78431;BME280;67727;50.236;22.452;2023-06-22T06:31:22;99907.70;;;23.47;68.30
78431;BME280;67727;50.236;22.452;2023-06-22T06:33:50;99902.27;;;23.55;67.90
78431;BME280;67727;50.236;22.452;2023-06-22T06:36:16;99903.06;;;23.63;67.71
78431;BME280;67727;50.236;22.452;2023-06-22T06:38:43;99901.19;;;23.70;67.23
78431;BME280;67727;50.236;22.452;2023-06-22T06:41:10;99898.46;;;23.75;67.27
78431;BME280;67727;50.236;22.452;2023-06-22T06:43:37;99892.11;;;23.78;66.83
78431;BME280;67727;50.236;22.452;2023-06-22T06:46:06;99892.44;;;23.79;66.98
78431;BME280;67727;50.236;22.452;2023-06-22T06:48:32;99890.34;;;23.82;66.89
78431;BME280;67727;50.236;22.452;2023-06-22T06:50:59;99886.66;;;23.81;66.22
78431;BME280;67727;50.236;22.452;2023-06-22T06:53:26;99888.50;;;23.81;66.47
78431;BME280;67727;50.236;22.452;2023-06-22T06:55:53;99886.94;;;23.83;67.19
78431;BME280;67727;50.236;22.452;2023-06-22T06:58:20;99884.77;;;23.88;67.14
78431;BME280;67727;50.236;22.452;2023-06-22T07:00:47;99881.39;;;24.00;66.73
78431;BME280;67727;50.236;22.452;2023-06-22T07:03:14;99887.02;;;24.20;67.12
78431;BME280;67727;50.236;22.452;2023-06-22T07:05:40;99888.45;;;24.46;66.33
78431;BME280;67727;50.236;22.452;2023-06-22T07:08:07;99885.55;;;24.74;66.08
78431;BME280;67727;50.236;22.452;2023-06-22T07:10:34;99888.30;;;25.09;65.16
78431;BME280;67727;50.236;22.452;2023-06-22T07:13:01;99890.91;;;25.40;64.66
78431;BME280;67727;50.236;22.452;2023-06-22T07:15:28;99900.36;;;25.74;64.11
78431;BME280;67727;50.236;22.452;2023-06-22T07:17:54;99900.45;;;26.02;61.60
78431;BME280;67727;50.236;22.452;2023-06-22T07:20:21;99893.27;;;26.20;62.16
78431;BME280;67727;50.236;22.452;2023-06-22T07:22:48;99901.00;;;26.50;62.05
78431;BME280;67727;50.236;22.452;2023-06-22T07:25:15;99900.52;;;26.75;60.63
78431;BME280;67727;50.236;22.452;2023-06-22T07:27:57;99897.92;;;26.98;60.64
78431;BME280;67727;50.236;22.452;2023-06-22T07:30:24;99900.96;;;27.24;60.53
78431;BME280;67727;50.236;22.452;2023-06-22T07:32:51;99904.87;;;27.51;59.33
78431;BME280;67727;50.236;22.452;2023-06-22T07:35:18;99903.66;;;27.67;58.07
78431;BME280;67727;50.236;22.452;2023-06-22T07:37:45;99899.82;;;27.87;59.03
78431;BME280;67727;50.236;22.452;2023-06-22T07:40:12;99899.03;;;28.13;58.68
78431;BME280;67727;50.236;22.452;2023-06-22T07:42:39;99894.36;;;28.35;57.16
78431;BME280;67727;50.236;22.452;2023-06-22T07:45:06;99893.14;;;28.52;57.07
78431;BME280;67727;50.236;22.452;2023-06-22T07:47:34;99896.48;;;28.69;56.89
78431;BME280;67727;50.236;22.452;2023-06-22T07:50:07;99895.70;;;28.89;55.86
78431;BME280;67727;50.236;22.452;2023-06-22T07:52:34;99894.74;;;29.08;55.09
78431;BME280;67727;50.236;22.452;2023-06-22T07:55:01;99894.38;;;29.23;54.50
78431;BME280;67727;50.236;22.452;2023-06-22T07:57:30;99891.31;;;29.41;54.75
78431;BME280;67727;50.236;22.452;2023-06-22T08:00:00;99890.10;;;29.59;54.47
78431;BME280;67727;50.236;22.452;2023-06-22T08:02:27;99883.11;;;29.71;52.85
78431;BME280;67727;50.236;22.452;2023-06-22T08:04:54;99878.60;;;29.86;54.03
78431;BME280;67727;50.236;22.452;2023-06-22T08:07:21;99874.67;;;30.04;52.94
78431;BME280;67727;50.236;22.452;2023-06-22T08:09:48;99878.67;;;30.20;52.83
78431;BME280;67727;50.236;22.452;2023-06-22T08:12:16;99881.36;;;30.37;53.10
78431;BME280;67727;50.236;22.452;2023-06-22T08:14:43;99885.33;;;30.60;53.38
78431;BME280;67727;50.236;22.452;2023-06-22T08:17:12;99883.80;;;30.90;53.15
78431;BME280;67727;50.236;22.452;2023-06-22T08:19:40;99883.19;;;31.12;51.52
78431;BME280;67727;50.236;22.452;2023-06-22T08:22:07;99887.91;;;31.19;51.32
78431;BME280;67727;50.236;22.452;2023-06-22T08:24:37;99885.76;;;31.05;48.62
78431;BME280;67727;50.236;22.452;2023-06-22T08:27:07;99893.56;;;30.86;50.15
78431;BME280;67727;50.236;22.452;2023-06-22T08:29:35;99888.52;;;30.80;49.85
78431;BME280;67727;50.236;22.452;2023-06-22T08:32:05;99885.38;;;30.85;49.99
78431;BME280;67727;50.236;22.452;2023-06-22T08:34:32;99880.83;;;30.95;48.52
78431;BME280;67727;50.236;22.452;2023-06-22T08:36:58;99879.13;;;30.91;49.03
78431;BME280;67727;50.236;22.452;2023-06-22T08:39:26;99877.30;;;30.96;49.39
78431;BME280;67727;50.236;22.452;2023-06-22T08:41:52;99876.69;;;31.09;49.53
78431;BME280;67727;50.236;22.452;2023-06-22T08:44:19;99879.92;;;31.22;47.84
78431;BME280;67727;50.236;22.452;2023-06-22T08:46:46;99879.08;;;31.29;48.88
78431;BME280;67727;50.236;22.452;2023-06-22T08:49:13;99875.36;;;31.37;49.12
78431;BME280;67727;50.236;22.452;2023-06-22T08:51:40;99874.21;;;31.46;49.47
78431;BME280;67727;50.236;22.452;2023-06-22T08:54:07;99869.02;;;31.55;48.49
78431;BME280;67727;50.236;22.452;2023-06-22T08:56:34;99866.35;;;31.51;47.41
78431;BME280;67727;50.236;22.452;2023-06-22T08:59:01;99867.52;;;31.44;47.14
78431;BME280;67727;50.236;22.452;2023-06-22T09:01:28;99868.70;;;31.29;46.66
78431;BME280;67727;50.236;22.452;2023-06-22T09:03:55;99869.55;;;31.20;47.72
78431;BME280;67727;50.236;22.452;2023-06-22T09:06:24;99874.08;;;31.21;49.28
78431;BME280;67727;50.236;22.452;2023-06-22T09:08:51;99878.30;;;31.29;49.27
78431;BME280;67727;50.236;22.452;2023-06-22T09:11:18;99882.38;;;31.35;48.68
78431;BME280;67727;50.236;22.452;2023-06-22T09:13:45;99888.69;;;31.37;48.56
78431;BME280;67727;50.236;22.452;2023-06-22T09:16:12;99891.39;;;31.36;48.50
78431;BME280;67727;50.236;22.452;2023-06-22T09:18:39;99898.03;;;31.33;47.05
78431;BME280;67727;50.236;22.452;2023-06-22T09:21:06;99897.45;;;31.19;46.04
78431;BME280;67727;50.236;22.452;2023-06-22T09:23:33;99894.65;;;31.11;48.35
78431;BME280;67727;50.236;22.452;2023-06-22T09:26:00;99893.27;;;31.20;49.03
78431;BME280;67727;50.236;22.452;2023-06-22T09:28:27;99890.71;;;31.41;48.68
78431;BME280;67727;50.236;22.452;2023-06-22T09:30:54;99886.91;;;31.63;48.06
78431;BME280;67727;50.236;22.452;2023-06-22T09:33:25;99886.03;;;31.83;48.44
78431;BME280;67727;50.236;22.452;2023-06-22T09:35:52;99880.10;;;32.07;48.42
78431;BME280;67727;50.236;22.452;2023-06-22T09:38:22;99875.71;;;32.27;47.28
78431;BME280;67727;50.236;22.452;2023-06-22T09:40:49;99873.79;;;32.39;46.25
78431;BME280;67727;50.236;22.452;2023-06-22T09:43:16;99870.89;;;32.50;45.86
78431;BME280;67727;50.236;22.452;2023-06-22T09:45:43;99867.43;;;32.59;44.56
78431;BME280;67727;50.236;22.452;2023-06-22T09:48:10;99865.25;;;32.69;45.78
78431;BME280;67727;50.236;22.452;2023-06-22T09:50:37;99865.70;;;32.84;45.34
78431;BME280;67727;50.236;22.452;2023-06-22T09:53:04;99870.23;;;32.97;43.75
78431;BME280;67727;50.236;22.452;2023-06-22T09:55:31;99861.23;;;33.00;43.30
78431;BME280;67727;50.236;22.452;2023-06-22T09:57:58;99864.05;;;33.10;43.90
78431;BME280;67727;50.236;22.452;2023-06-22T10:00:25;99860.04;;;33.22;43.68
78431;BME280;67727;50.236;22.452;2023-06-22T10:02:53;99860.31;;;33.39;43.37
78431;BME280;67727;50.236;22.452;2023-06-22T10:05:20;99856.28;;;33.37;41.17
78431;BME280;67727;50.236;22.452;2023-06-22T10:07:47;99861.94;;;33.32;42.28
78431;BME280;67727;50.236;22.452;2023-06-22T10:10:13;99863.30;;;33.31;41.85
78431;BME280;67727;50.236;22.452;2023-06-22T10:12:42;99860.98;;;33.24;41.85
78431;BME280;67727;50.236;22.452;2023-06-22T10:15:10;99858.84;;;33.19;41.90
78431;BME280;67727;50.236;22.452;2023-06-22T10:17:37;99859.09;;;33.12;42.11
78431;BME280;67727;50.236;22.452;2023-06-22T10:20:06;99866.86;;;33.10;43.09
78431;BME280;67727;50.236;22.452;2023-06-22T10:22:43;99871.02;;;33.07;41.17
78431;BME280;67727;50.236;22.452;2023-06-22T10:25:13;99871.20;;;32.94;41.30
78431;BME280;67727;50.236;22.452;2023-06-22T10:27:40;99876.91;;;32.94;41.33
78431;BME280;67727;50.236;22.452;2023-06-22T10:30:08;99874.94;;;32.93;41.18
78431;BME280;67727;50.236;22.452;2023-06-22T10:32:38;99874.70;;;32.91;41.32
78431;BME280;67727;50.236;22.452;2023-06-22T10:35:08;99875.52;;;32.85;41.50
78431;BME280;67727;50.236;22.452;2023-06-22T10:37:37;99874.17;;;32.71;41.69
78431;BME280;67727;50.236;22.452;2023-06-22T10:40:05;99870.55;;;32.59;41.44
78431;BME280;67727;50.236;22.452;2023-06-22T10:42:32;99869.36;;;32.47;42.18
78431;BME280;67727;50.236;22.452;2023-06-22T10:44:59;99870.88;;;32.34;42.56
78431;BME280;67727;50.236;22.452;2023-06-22T10:47:28;99864.77;;;32.14;41.94
78431;BME280;67727;50.236;22.452;2023-06-22T10:49:54;99861.45;;;31.86;43.42
78431;BME280;67727;50.236;22.452;2023-06-22T10:52:23;99861.96;;;31.71;44.16
78431;BME280;67727;50.236;22.452;2023-06-22T10:54:53;99860.86;;;31.59;44.37
78431;BME280;67727;50.236;22.452;2023-06-22T10:57:21;99855.19;;;31.49;45.19
78431;BME280;67727;50.236;22.452;2023-06-22T10:59:48;99859.41;;;31.37;44.86
78431;BME280;67727;50.236;22.452;2023-06-22T11:02:15;99868.36;;;31.25;45.33
78431;BME280;67727;50.236;22.452;2023-06-22T11:04:42;99863.79;;;31.08;46.22
78431;BME280;67727;50.236;22.452;2023-06-22T11:07:11;99863.01;;;30.97;46.04
78431;BME280;67727;50.236;22.452;2023-06-22T11:09:38;99863.73;;;30.83;46.30
78431;BME280;67727;50.236;22.452;2023-06-22T11:12:06;99865.22;;;30.70;47.11
78431;BME280;67727;50.236;22.452;2023-06-22T11:14:33;99862.63;;;30.56;47.50
78431;BME280;67727;50.236;22.452;2023-06-22T11:17:00;99864.56;;;30.42;47.87
78431;BME280;67727;50.236;22.452;2023-06-22T11:19:27;99865.30;;;30.29;47.88
78431;BME280;67727;50.236;22.452;2023-06-22T11:21:54;99862.26;;;30.15;47.93
78431;BME280;67727;50.236;22.452;2023-06-22T11:24:21;99859.16;;;29.99;48.51
78431;BME280;67727;50.236;22.452;2023-06-22T11:26:48;99862.19;;;29.90;48.88
78431;BME280;67727;50.236;22.452;2023-06-22T11:29:15;99859.52;;;29.83;49.16
78431;BME280;67727;50.236;22.452;2023-06-22T11:31:41;99859.75;;;29.76;49.60
78431;BME280;67727;50.236;22.452;2023-06-22T11:34:10;99858.64;;;29.68;49.41
78431;BME280;67727;50.236;22.452;2023-06-22T11:36:37;99856.56;;;29.61;49.76
78431;BME280;67727;50.236;22.452;2023-06-22T11:39:04;99856.11;;;29.59;50.24
78431;BME280;67727;50.236;22.452;2023-06-22T11:41:31;99855.51;;;29.59;50.33
78431;BME280;67727;50.236;22.452;2023-06-22T11:43:58;99856.80;;;29.63;50.80
78431;BME280;67727;50.236;22.452;2023-06-22T11:46:25;99855.33;;;29.69;51.01
78431;BME280;67727;50.236;22.452;2023-06-22T11:48:52;99850.65;;;29.78;51.30
78431;BME280;67727;50.236;22.452;2023-06-22T11:51:19;99850.33;;;29.95;50.88
78431;BME280;67727;50.236;22.452;2023-06-22T11:53:46;99843.77;;;30.26;50.73
78431;BME280;67727;50.236;22.452;2023-06-22T11:56:12;99835.59;;;30.54;49.92
78431;BME280;67727;50.236;22.452;2023-06-22T11:58:39;99831.02;;;30.85;49.19
78431;BME280;67727;50.236;22.452;2023-06-22T12:01:06;99836.77;;;31.14;47.29
78431;BME280;67727;50.236;22.452;2023-06-22T12:03:33;99834.84;;;31.22;46.49
78431;BME280;67727;50.236;22.452;2023-06-22T12:06:00;99831.96;;;31.30;45.77
78431;BME280;67727;50.236;22.452;2023-06-22T12:08:27;99825.45;;;31.43;46.63
78431;BME280;67727;50.236;22.452;2023-06-22T12:10:53;99823.92;;;31.56;46.07
78431;BME280;67727;50.236;22.452;2023-06-22T12:13:21;99825.51;;;31.61;44.91
78431;BME280;67727;50.236;22.452;2023-06-22T12:15:48;99828.67;;;31.57;46.13
78431;BME280;67727;50.236;22.452;2023-06-22T12:18:15;99826.63;;;31.73;47.01
78431;BME280;67727;50.236;22.452;2023-06-22T12:20:42;99819.46;;;31.96;46.58
78431;BME280;67727;50.236;22.452;2023-06-22T12:23:09;99817.12;;;32.17;44.70
78431;BME280;67727;50.236;22.452;2023-06-22T12:25:35;99818.94;;;32.20;44.02
78431;BME280;67727;50.236;22.452;2023-06-22T12:28:02;99814.15;;;32.27;44.54
78431;BME280;67727;50.236;22.452;2023-06-22T12:30:32;99813.70;;;32.36;43.76
78431;BME280;67727;50.236;22.452;2023-06-22T12:32:59;99818.27;;;32.40;43.98
78431;BME280;67727;50.236;22.452;2023-06-22T12:35:26;99816.92;;;32.48;44.53
78431;BME280;67727;50.236;22.452;2023-06-22T12:37:53;99813.10;;;32.57;44.13
78431;BME280;67727;50.236;22.452;2023-06-22T12:40:20;99811.55;;;32.62;43.26
78431;BME280;67727;50.236;22.452;2023-06-22T12:42:47;99812.27;;;32.64;42.08
78431;BME280;67727;50.236;22.452;2023-06-22T12:45:14;99819.64;;;32.57;42.24
78431;BME280;67727;50.236;22.452;2023-06-22T12:47:41;99820.93;;;32.40;42.06
78431;BME280;67727;50.236;22.452;2023-06-22T12:50:08;99819.79;;;32.23;42.57
78431;BME280;67727;50.236;22.452;2023-06-22T12:52:36;99816.88;;;32.10;42.54
78431;BME280;67727;50.236;22.452;2023-06-22T12:55:06;99804.11;;;31.99;43.06
78431;BME280;67727;50.236;22.452;2023-06-22T12:57:34;99794.77;;;32.02;44.07
78431;BME280;67727;50.236;22.452;2023-06-22T13:00:00;99801.02;;;32.16;44.89
78431;BME280;67727;50.236;22.452;2023-06-22T13:02:27;99800.80;;;32.23;43.48